Time;durP1;ratioP1;P1;durP2;ratioP2;P2;SDS_P1;SDS_P2;PMS_P1;PMS_P2;Temp;Humidity;BMP_temperature;BMP_pressure;BME280_temperature;BME280_humidity;BME280_pressure;Samples;Min_cycle;Max_cycle;Signal;HPM_P1;HPM_P2
2023/07/24 00:01:57;;;;;;;4.20;3.80;;;;;;;;;;5036897;28;20191;-66
2023/07/24 00:04:23;;;;;;;4.18;3.63;;;;;;;;;;5034885;28;20120;-66
2023/07/24 00:06:49;;;;;;;5.15;3.70;;;;;;;;;;5036282;28;20634;-66
2023/07/24 00:09:15;;;;;;;4.63;3.63;;;;;;;;;;5036003;28;20041;-66
2023/07/24 00:11:41;;;;;;;3.90;3.50;;;;;;;;;;5033838;28;20033;-66
2023/07/24 00:14:07;;;;;;;5.70;3.90;;;;;;;;;;5034428;28;20075;-66
2023/07/24 00:16:33;;;;;;;4.88;4.22;;;;;;;;;;5038545;28;20521;-66
2023/07/24 00:18:59;;;;;;;5.20;3.92;;;;;;;;;;5030716;28;20053;-66
2023/07/24 00:21:25;;;;;;;5.53;3.80;;;;;;;;;;5035542;28;20061;-66
2023/07/24 00:23:51;;;;;;;7.18;3.63;;;;;;;;;;5033235;28;20044;-66
2023/07/24 00:26:17;;;;;;;4.90;3.55;;;;;;;;;;5033832;28;20123;-66
2023/07/24 00:28:43;;;;;;;3.63;2.90;;;;;;;;;;5034006;28;20585;-66
2023/07/24 00:31:09;;;;;;;4.85;2.90;;;;;;;;;;5034415;28;20048;-66
2023/07/24 00:33:35;;;;;;;4.22;3.83;;;;;;;;;;5035397;28;20051;-66
2023/07/24 00:36:01;;;;;;;4.30;3.38;;;;;;;;;;5033610;28;20056;-66
2023/07/24 00:38:27;;;;;;;3.92;3.17;;;;;;;;;;5032427;28;20041;-66
2023/07/24 00:40:53;;;;;;;4.32;3.50;;;;;;;;;;5035044;28;20494;-66
2023/07/24 00:43:19;;;;;;;4.47;3.33;;;;;;;;;;5033870;28;20493;-66
2023/07/24 00:45:45;;;;;;;3.75;3.20;;;;;;;;;;5034854;28;20052;-66
2023/07/24 00:48:11;;;;;;;3.53;3.17;;;;;;;;;;5033806;28;20053;-66
2023/07/24 00:50:38;;;;;;;3.30;3.00;;;;;;;;;;5032772;28;20041;-66
2023/07/24 00:53:04;;;;;;;3.65;3.33;;;;;;;;;;5033422;28;20042;-66
2023/07/24 00:55:30;;;;;;;4.05;3.55;;;;;;;;;;5034296;28;20122;-66
2023/07/24 00:57:58;;;;;;;4.70;3.47;;;;;;;;;;5036612;28;20221;-66
2023/07/24 01:00:25;;;;;;;3.38;3.08;;;;;;;;;;5033500;28;20494;-66
2023/07/24 01:02:51;;;;;;;4.15;2.63;;;;;;;;;;5039293;28;20042;-66
2023/07/24 01:05:17;;;;;;;3.22;2.92;;;;;;;;;;5036292;28;20052;-66
2023/07/24 01:07:43;;;;;;;3.38;3.08;;;;;;;;;;5036296;28;20052;-66
2023/07/24 01:10:10;;;;;;;3.83;3.10;;;;;;;;;;5035000;28;20602;-66
2023/07/24 01:12:39;;;;;;;2.80;2.60;;;;;;;;;;5036624;28;20374;-66
2023/07/24 01:15:12;;;;;;;5.18;3.60;;;;;;;;;;5033690;28;20132;-66
2023/07/24 01:17:40;;;;;;;3.92;3.30;;;;;;;;;;5033162;28;20037;-66
2023/07/24 01:20:08;;;;;;;2.80;2.60;;;;;;;;;;5031681;28;20116;-66
2023/07/24 01:22:49;;;;;;;3.28;2.67;;;;;;;;;;5036809;28;20041;-66
2023/07/24 01:25:17;;;;;;;2.45;2.25;;;;;;;;;;5036215;28;20056;-65
2023/07/24 01:27:45;;;;;;;2.28;2.08;;;;;;;;;;5033479;28;20079;-65
2023/07/24 01:30:11;;;;;;;1.83;1.70;;;;;;;;;;5035979;28;20524;-65
2023/07/24 01:32:38;;;;;;;1.60;1.50;;;;;;;;;;5035283;28;20045;-65
2023/07/24 01:35:05;;;;;;;2.03;1.70;;;;;;;;;;5038964;28;20032;-65
2023/07/24 01:37:31;;;;;;;2.20;2.00;;;;;;;;;;5032894;28;20183;-66
2023/07/24 01:39:57;;;;;;;1.77;1.67;;;;;;;;;;5036897;28;20120;-66
2023/07/24 01:42:24;;;;;;;1.77;1.67;;;;;;;;;;5035870;28;20037;-66
2023/07/24 01:44:53;;;;;;;1.27;1.17;;;;;;;;;;5033359;28;20116;-66
2023/07/24 01:47:19;;;;;;;1.77;1.52;;;;;;;;;;5034169;28;20099;-66
2023/07/24 01:49:45;;;;;;;1.77;1.67;;;;;;;;;;5032495;28;20041;-66
2023/07/24 01:52:11;;;;;;;2.00;1.80;;;;;;;;;;5028655;28;20071;-66
2023/07/24 01:54:37;;;;;;;1.20;1.10;;;;;;;;;;5032718;28;20053;-66
2023/07/24 01:57:04;;;;;;;1.42;1.33;;;;;;;;;;5032533;28;20082;-66
2023/07/24 01:59:30;;;;;;;2.20;1.42;;;;;;;;;;5031312;28;20033;-66
2023/07/24 02:01:56;;;;;;;1.00;0.90;;;;;;;;;;5034607;28;20049;-66
2023/07/24 02:04:22;;;;;;;1.17;1.08;;;;;;;;;;5032616;28;20047;-66
2023/07/24 02:06:50;;;;;;;0.95;0.90;;;;;;;;;;5035137;28;20045;-66
2023/07/24 02:09:20;;;;;;;1.35;1.25;;;;;;;;;;5036978;28;20123;-66
2023/07/24 02:11:46;;;;;;;0.90;0.90;;;;;;;;;;5036376;28;20052;-66
2023/07/24 02:14:12;;;;;;;1.20;1.10;;;;;;;;;;5033354;28;20061;-66
2023/07/24 02:16:38;;;;;;;1.30;1.00;;;;;;;;;;5034489;28;20080;-66
2023/07/24 02:19:04;;;;;;;1.27;1.17;;;;;;;;;;5033558;28;20045;-66
2023/07/24 02:21:31;;;;;;;1.10;1.00;;;;;;;;;;5035738;28;20674;-66
2023/07/24 02:23:56;;;;;;;1.13;0.85;;;;;;;;;;5038676;28;20697;-66
2023/07/24 02:26:22;;;;;;;1.20;1.10;;;;;;;;;;5034677;28;20049;-66
2023/07/24 02:28:48;;;;;;;1.55;1.35;;;;;;;;;;5035201;28;20129;-66
2023/07/24 02:31:15;;;;;;;1.35;1.25;;;;;;;;;;5032748;28;20625;-65
2023/07/24 02:33:41;;;;;;;1.50;1.40;;;;;;;;;;5035773;28;20036;-65
2023/07/24 02:36:07;;;;;;;1.38;1.27;;;;;;;;;;5034437;28;20048;-65
2023/07/24 02:38:33;;;;;;;1.50;1.40;;;;;;;;;;5035079;28;20041;-65
2023/07/24 02:40:59;;;;;;;1.65;1.42;;;;;;;;;;5038799;28;20039;-66
2023/07/24 02:43:25;;;;;;;1.27;1.17;;;;;;;;;;5036986;28;20049;-66
2023/07/24 02:45:51;;;;;;;1.75;1.65;;;;;;;;;;5033011;28;20120;-66
2023/07/24 02:48:17;;;;;;;1.88;1.52;;;;;;;;;;5036054;28;20132;-66
2023/07/24 02:50:43;;;;;;;1.80;1.65;;;;;;;;;;5038377;28;20037;-66
2023/07/24 02:53:09;;;;;;;1.40;1.30;;;;;;;;;;5029126;28;20037;-66
2023/07/24 02:55:35;;;;;;;2.00;1.80;;;;;;;;;;5033160;28;20049;-65
2023/07/24 02:58:01;;;;;;;1.52;1.35;;;;;;;;;;5037192;28;20043;-66
2023/07/24 03:00:27;;;;;;;2.05;1.58;;;;;;;;;;5036108;28;20076;-66
2023/07/24 03:02:53;;;;;;;2.30;2.20;;;;;;;;;;5033543;28;20076;-66
2023/07/24 03:05:19;;;;;;;1.80;1.70;;;;;;;;;;5036078;28;20045;-66
2023/07/24 03:07:45;;;;;;;1.80;1.70;;;;;;;;;;5037391;28;20040;-66
2023/07/24 03:10:11;;;;;;;2.53;2.33;;;;;;;;;;5039009;28;20064;-66
2023/07/24 03:12:37;;;;;;;1.65;1.55;;;;;;;;;;5035323;28;20132;-66
2023/07/24 03:15:03;;;;;;;1.55;1.40;;;;;;;;;;5039017;28;20569;-66
2023/07/24 03:17:29;;;;;;;2.60;2.40;;;;;;;;;;5041712;28;20148;-66
2023/07/24 03:19:55;;;;;;;2.05;1.95;;;;;;;;;;5035274;28;20052;-66
2023/07/24 03:22:21;;;;;;;2.45;2.25;;;;;;;;;;5041636;28;20037;-66
2023/07/24 03:24:47;;;;;;;2.70;2.50;;;;;;;;;;5040414;28;20702;-66
2023/07/24 03:27:13;;;;;;;1.83;1.73;;;;;;;;;;5035098;28;20037;-66
2023/07/24 03:29:40;;;;;;;2.50;2.30;;;;;;;;;;5037740;28;20073;-66
2023/07/24 03:32:07;;;;;;;2.58;2.10;;;;;;;;;;5036644;28;20055;-66
2023/07/24 03:34:33;;;;;;;2.10;2.00;;;;;;;;;;5038686;28;20128;-66
2023/07/24 03:36:59;;;;;;;2.25;2.05;;;;;;;;;;5035009;28;20040;-66
2023/07/24 03:39:25;;;;;;;3.95;2.15;;;;;;;;;;5035276;28;20042;-66
2023/07/24 03:41:51;;;;;;;2.50;2.00;;;;;;;;;;5035800;28;20033;-66
2023/07/24 03:44:17;;;;;;;1.83;1.73;;;;;;;;;;5035625;28;20550;-66
2023/07/24 03:46:43;;;;;;;3.22;2.75;;;;;;;;;;5036354;28;20045;-66
2023/07/24 03:49:09;;;;;;;3.33;2.42;;;;;;;;;;5037107;28;20048;-66
2023/07/24 03:51:35;;;;;;;2.97;2.72;;;;;;;;;;5035564;28;20089;-66
2023/07/24 03:54:01;;;;;;;2.60;2.40;;;;;;;;;;5039899;28;20049;-66
2023/07/24 03:56:27;;;;;;;2.28;2.10;;;;;;;;;;5037988;28;20063;-66
2023/07/24 03:58:53;;;;;;;2.60;2.40;;;;;;;;;;5036097;28;20774;-66
2023/07/24 04:01:19;;;;;;;2.85;2.65;;;;;;;;;;5038416;28;20048;-66
2023/07/24 04:03:45;;;;;;;2.17;1.98;;;;;;;;;;5039065;28;20396;-66
2023/07/24 04:06:11;;;;;;;1.85;1.67;;;;;;;;;;5032066;28;20045;-66
2023/07/24 04:08:37;;;;;;;1.92;1.73;;;;;;;;;;5039635;28;20121;-66
2023/07/24 04:11:04;;;;;;;1.70;1.60;;;;;;;;;;5036051;28;20421;-66
2023/07/24 04:13:30;;;;;;;2.70;1.77;;;;;;;;;;5037377;28;20060;-66
2023/07/24 04:15:58;;;;;;;2.08;1.88;;;;;;;;;;5037900;28;20395;-66
2023/07/24 04:18:24;;;;;;;1.58;1.33;;;;;;;;;;5040805;28;20044;-66
2023/07/24 04:20:50;;;;;;;1.92;1.83;;;;;;;;;;5036930;28;20055;-66
2023/07/24 04:23:16;;;;;;;1.17;1.10;;;;;;;;;;5032584;28;20059;-66
2023/07/24 04:25:42;;;;;;;1.75;1.65;;;;;;;;;;5037758;28;20044;-66
2023/07/24 04:28:08;;;;;;;3.25;1.92;;;;;;;;;;5039676;28;20389;-66
2023/07/24 04:30:34;;;;;;;2.17;1.65;;;;;;;;;;5035010;28;20029;-65
2023/07/24 04:33:00;;;;;;;1.45;1.35;;;;;;;;;;5038325;28;20266;-66
2023/07/24 04:35:27;;;;;;;1.88;1.70;;;;;;;;;;5036587;28;20056;-66
2023/07/24 04:37:53;;;;;;;1.30;1.20;;;;;;;;;;5034400;28;20052;-66
2023/07/24 04:40:19;;;;;;;1.58;1.48;;;;;;;;;;5039087;28;20045;-66
2023/07/24 04:42:45;;;;;;;1.60;1.50;;;;;;;;;;5034234;28;20053;-66
2023/07/24 04:45:11;;;;;;;1.95;1.85;;;;;;;;;;5030595;28;20049;-66
2023/07/24 04:47:38;;;;;;;2.35;2.08;;;;;;;;;;5034226;28;20069;-66
2023/07/24 04:50:04;;;;;;;2.45;1.83;;;;;;;;;;5033047;28;20049;-66
2023/07/24 04:52:30;;;;;;;1.75;1.48;;;;;;;;;;5034199;28;20045;-66
2023/07/24 04:54:56;;;;;;;2.13;1.80;;;;;;;;;;5037490;28;20080;-66
2023/07/24 04:57:22;;;;;;;2.92;2.13;;;;;;;;;;5032517;28;20123;-66
2023/07/24 04:59:49;;;;;;;2.85;2.38;;;;;;;;;;5036532;28;20700;-66
2023/07/24 05:02:15;;;;;;;2.72;2.53;;;;;;;;;;5034769;28;20449;-66
2023/07/24 05:04:41;;;;;;;2.40;2.20;;;;;;;;;;5036415;28;20045;-66
2023/07/24 05:07:07;;;;;;;3.40;2.53;;;;;;;;;;5037358;28;20037;-66
2023/07/24 05:09:33;;;;;;;1.98;1.88;;;;;;;;;;5030346;28;20107;-66
2023/07/24 05:11:59;;;;;;;2.08;1.85;;;;;;;;;;5034925;28;20130;-66
2023/07/24 05:14:25;;;;;;;2.30;1.77;;;;;;;;;;5032687;28;20081;-66
2023/07/24 05:16:51;;;;;;;2.40;2.20;;;;;;;;;;5033991;28;20040;-66
2023/07/24 05:19:17;;;;;;;1.67;1.58;;;;;;;;;;5036091;28;20057;-66
2023/07/24 05:21:43;;;;;;;1.50;1.40;;;;;;;;;;5030939;28;20437;-66
2023/07/24 05:24:09;;;;;;;1.77;1.63;;;;;;;;;;5035843;28;20038;-66
2023/07/24 05:26:35;;;;;;;1.48;1.38;;;;;;;;;;5037130;28;20083;-66
2023/07/24 05:29:01;;;;;;;1.25;1.15;;;;;;;;;;5038046;28;20063;-66
2023/07/24 05:31:27;;;;;;;1.00;1.00;;;;;;;;;;5037104;28;20474;-66
2023/07/24 05:33:53;;;;;;;1.92;1.80;;;;;;;;;;5033419;28;20556;-66
2023/07/24 05:36:19;;;;;;;1.40;1.30;;;;;;;;;;5034430;28;20065;-66
2023/07/24 05:38:45;;;;;;;1.98;1.35;;;;;;;;;;5034155;28;20115;-66
2023/07/24 05:41:11;;;;;;;1.38;1.27;;;;;;;;;;5036131;28;20152;-66
2023/07/24 05:43:37;;;;;;;1.30;1.20;;;;;;;;;;5035191;28;20049;-66
2023/07/24 05:46:03;;;;;;;2.38;1.30;;;;;;;;;;5034711;28;20147;-65
2023/07/24 05:48:29;;;;;;;1.10;1.10;;;;;;;;;;5032661;28;20044;-65
2023/07/24 05:50:55;;;;;;;1.15;1.05;;;;;;;;;;5036768;28;20504;-65
2023/07/24 05:53:21;;;;;;;1.75;1.65;;;;;;;;;;5034220;28;20080;-65
2023/07/24 05:55:47;;;;;;;1.90;1.80;;;;;;;;;;5034299;28;20646;-65
2023/07/24 05:58:13;;;;;;;2.60;2.40;;;;;;;;;;5038966;28;20147;-66
2023/07/24 06:00:39;;;;;;;1.73;1.63;;;;;;;;;;5034643;28;20053;-66
2023/07/24 06:03:05;;;;;;;1.50;1.40;;;;;;;;;;5035215;28;20116;-66
2023/07/24 06:05:31;;;;;;;1.30;1.20;;;;;;;;;;5033349;28;20056;-66
2023/07/24 06:07:57;;;;;;;1.60;1.50;;;;;;;;;;5036899;28;20041;-66
2023/07/24 06:10:23;;;;;;;1.50;1.40;;;;;;;;;;5033184;28;20037;-66
2023/07/24 06:12:49;;;;;;;1.50;1.40;;;;;;;;;;5035935;28;20053;-66
2023/07/24 06:15:15;;;;;;;1.80;1.70;;;;;;;;;;5036130;28;20140;-66
2023/07/24 06:17:41;;;;;;;1.70;1.60;;;;;;;;;;5034189;28;20817;-66
2023/07/24 06:20:07;;;;;;;2.72;2.53;;;;;;;;;;5037360;28;20033;-66
2023/07/24 06:22:33;;;;;;;2.55;2.00;;;;;;;;;;5032368;28;20047;-66
2023/07/24 06:24:59;;;;;;;1.90;1.80;;;;;;;;;;5034564;28;20886;-66
2023/07/24 06:27:25;;;;;;;2.45;2.00;;;;;;;;;;5032448;28;20036;-66
2023/07/24 06:29:51;;;;;;;1.42;1.33;;;;;;;;;;5033785;28;20044;-66
2023/07/24 06:32:17;;;;;;;1.98;1.83;;;;;;;;;;5034170;28;20060;-66
2023/07/24 06:34:43;;;;;;;1.63;1.52;;;;;;;;;;5035369;28;20401;-66
2023/07/24 06:37:09;;;;;;;1.98;1.50;;;;;;;;;;5037278;28;20049;-66
2023/07/24 06:39:35;;;;;;;2.00;1.48;;;;;;;;;;5035381;28;20443;-66
2023/07/24 06:42:01;;;;;;;4.25;1.98;;;;;;;;;;5037844;28;20109;-66
2023/07/24 06:44:27;;;;;;;3.65;2.40;;;;;;;;;;5031884;28;20091;-66
2023/07/24 06:46:53;;;;;;;2.58;2.38;;;;;;;;;;5033812;28;20056;-65
2023/07/24 06:49:19;;;;;;;2.00;1.90;;;;;;;;;;5038587;28;20075;-65
2023/07/24 06:51:45;;;;;;;4.38;3.28;;;;;;;;;;5033708;28;20044;-65
2023/07/24 06:54:11;;;;;;;3.38;2.88;;;;;;;;;;5032549;28;20049;-65
2023/07/24 06:56:37;;;;;;;4.25;3.78;;;;;;;;;;5031514;28;20091;-65
2023/07/24 06:59:04;;;;;;;3.35;3.05;;;;;;;;;;5040226;28;20037;-65
2023/07/24 07:01:30;;;;;;;4.78;3.50;;;;;;;;;;5028103;28;20076;-66
2023/07/24 07:03:56;;;;;;;2.28;2.17;;;;;;;;;;5033204;28;20049;-66
2023/07/24 07:06:22;;;;;;;2.97;2.35;;;;;;;;;;5033691;28;20357;-65
2023/07/24 07:08:48;;;;;;;4.07;3.67;;;;;;;;;;5035320;28;20061;-65
2023/07/24 07:11:14;;;;;;;3.50;3.20;;;;;;;;;;5035224;28;20090;-66
2023/07/24 07:13:40;;;;;;;2.50;2.40;;;;;;;;;;5032047;28;20049;-66
2023/07/24 07:16:06;;;;;;;2.88;2.67;;;;;;;;;;5038135;28;20046;-66
2023/07/24 07:18:32;;;;;;;3.97;2.80;;;;;;;;;;5037273;28;21660;-66
2023/07/24 07:20:58;;;;;;;4.22;3.45;;;;;;;;;;5032844;28;20037;-66
2023/07/24 07:23:24;;;;;;;2.67;2.47;;;;;;;;;;5035635;28;20393;-66
2023/07/24 07:25:51;;;;;;;3.03;2.60;;;;;;;;;;5036888;28;20037;-66
2023/07/24 07:28:17;;;;;;;2.75;2.55;;;;;;;;;;5034398;28;20713;-66
2023/07/24 07:30:44;;;;;;;2.88;2.67;;;;;;;;;;5033379;28;20597;-66
2023/07/24 07:33:10;;;;;;;2.70;2.50;;;;;;;;;;5034033;28;20460;-66
2023/07/24 07:35:36;;;;;;;2.90;2.70;;;;;;;;;;5035941;28;20037;-66
2023/07/24 07:38:04;;;;;;;3.38;3.00;;;;;;;;;;5033459;28;20044;-66
2023/07/24 07:40:30;;;;;;;2.15;2.03;;;;;;;;;;5031504;28;20441;-66
2023/07/24 07:42:57;;;;;;;2.78;2.45;;;;;;;;;;5032592;28;20049;-66
2023/07/24 07:45:23;;;;;;;2.85;2.65;;;;;;;;;;5036279;28;20045;-67
2023/07/24 07:47:49;;;;;;;4.15;3.70;;;;;;;;;;5046046;28;20047;-63
2023/07/24 07:50:15;;;;;;;5.00;4.03;;;;;;;;;;5028644;28;20044;-61
2023/07/24 07:52:41;;;;;;;3.05;2.72;;;;;;;;;;5029335;28;20045;-62
2023/07/24 07:55:08;;;;;;;3.80;3.47;;;;;;;;;;5037028;28;20041;-63
2023/07/24 07:57:37;;;;;;;4.35;3.30;;;;;;;;;;5049221;28;20075;-68
2023/07/24 08:00:04;;;;;;;3.97;3.20;;;;;;;;;;5047799;28;20055;-69
2023/07/24 08:02:31;;;;;;;3.90;2.75;;;;;;;;;;5043106;28;20029;-68
2023/07/24 08:04:58;;;;;;;3.08;2.83;;;;;;;;;;5038699;28;20076;-68
2023/07/24 08:07:24;;;;;;;4.05;2.80;;;;;;;;;;5043623;28;20052;-69
2023/07/24 08:09:50;;;;;;;2.63;2.42;;;;;;;;;;5042585;28;20038;-68
2023/07/24 08:12:16;;;;;;;4.70;3.53;;;;;;;;;;5033027;28;20116;-69
2023/07/24 08:14:42;;;;;;;3.15;2.60;;;;;;;;;;5034205;28;20052;-68
2023/07/24 08:17:08;;;;;;;3.67;2.20;;;;;;;;;;5036619;28;20049;-68
2023/07/24 08:19:34;;;;;;;5.65;3.85;;;;;;;;;;5033863;28;20048;-68
2023/07/24 08:22:00;;;;;;;4.30;3.38;;;;;;;;;;5036931;28;20595;-68
2023/07/24 08:24:26;;;;;;;3.45;2.90;;;;;;;;;;5034786;28;20037;-68
2023/07/24 08:26:52;;;;;;;3.50;2.65;;;;;;;;;;5038592;28;20106;-68
2023/07/24 08:29:18;;;;;;;5.57;4.10;;;;;;;;;;5037413;28;20049;-68
2023/07/24 08:31:44;;;;;;;4.70;3.72;;;;;;;;;;5047784;28;20405;-68
2023/07/24 08:34:10;;;;;;;4.57;3.20;;;;;;;;;;5037271;28;20048;-68
2023/07/24 08:36:37;;;;;;;5.60;3.92;;;;;;;;;;5040081;28;20042;-68
2023/07/24 08:39:03;;;;;;;8.48;3.60;;;;;;;;;;5039219;28;20120;-68
2023/07/24 08:41:32;;;;;;;4.32;3.90;;;;;;;;;;5038753;28;20049;-68
2023/07/24 08:43:58;;;;;;;4.70;3.17;;;;;;;;;;5033676;28;20413;-67
2023/07/24 08:46:25;;;;;;;3.50;3.13;;;;;;;;;;5049470;28;20044;-67
2023/07/24 08:48:52;;;;;;;7.25;3.22;;;;;;;;;;5027502;28;20045;-67
2023/07/24 08:51:22;;;;;;;6.13;3.50;;;;;;;;;;5034154;28;20045;-67
2023/07/24 08:53:48;;;;;;;4.40;3.28;;;;;;;;;;5037401;28;20507;-61
2023/07/24 08:56:14;;;;;;;6.57;3.60;;;;;;;;;;5031504;28;20053;-71
2023/07/24 08:58:41;;;;;;;4.60;3.80;;;;;;;;;;5032876;28;20045;-71
2023/07/24 09:01:07;;;;;;;3.30;3.00;;;;;;;;;;5032082;28;20056;-70
2023/07/24 09:03:33;;;;;;;7.80;4.45;;;;;;;;;;5041860;28;20912;-70
2023/07/24 09:06:09;;;;;;;4.07;3.67;;;;;;;;;;5041338;28;20068;-70
2023/07/24 09:08:35;;;;;;;4.97;4.15;;;;;;;;;;5040013;28;20037;-70
2023/07/24 09:11:02;;;;;;;5.68;3.50;;;;;;;;;;5044273;28;20044;-70
2023/07/24 09:13:28;;;;;;;8.25;3.78;;;;;;;;;;5036555;28;20053;-70
2023/07/24 09:15:55;;;;;;;3.60;2.70;;;;;;;;;;5035185;28;20646;-70
2023/07/24 09:18:21;;;;;;;6.05;3.40;;;;;;;;;;5042176;28;20045;-70
2023/07/24 09:20:47;;;;;;;3.60;3.05;;;;;;;;;;5044517;28;20474;-70
2023/07/24 09:23:14;;;;;;;4.40;2.70;;;;;;;;;;5042754;28;20033;-70
2023/07/24 09:25:42;;;;;;;3.78;2.90;;;;;;;;;;5045602;28;20044;-70
2023/07/24 09:28:15;;;;;;;4.80;3.13;;;;;;;;;;5045458;28;20045;-70
2023/07/24 09:30:42;;;;;;;3.38;3.08;;;;;;;;;;5037953;28;20037;-70
2023/07/24 09:33:08;;;;;;;3.97;3.47;;;;;;;;;;5030595;28;20045;-70
2023/07/24 09:35:34;;;;;;;4.35;3.55;;;;;;;;;;5029175;28;20045;-70
2023/07/24 09:38:04;;;;;;;4.25;3.30;;;;;;;;;;5026045;28;20556;-70
2023/07/24 09:40:38;;;;;;;3.45;3.15;;;;;;;;;;5031251;28;20123;-70
2023/07/24 09:43:04;;;;;;;3.95;3.58;;;;;;;;;;5035348;28;20051;-70
2023/07/24 09:45:30;;;;;;;4.88;3.70;;;;;;;;;;5037644;28;20057;-69
2023/07/24 09:47:59;;;;;;;4.07;3.08;;;;;;;;;;5028528;28;20044;-69
2023/07/24 09:50:26;;;;;;;3.33;2.80;;;;;;;;;;5039561;28;20049;-69
2023/07/24 09:52:52;;;;;;;3.33;2.80;;;;;;;;;;5041459;28;20053;-69
2023/07/24 09:55:30;;;;;;;5.78;3.33;;;;;;;;;;5036020;28;20452;-70
2023/07/24 09:57:57;;;;;;;6.00;3.47;;;;;;;;;;5038578;28;20044;-70
2023/07/24 10:00:23;;;;;;;3.85;3.40;;;;;;;;;;5040195;28;20041;-70
2023/07/24 10:02:49;;;;;;;3.50;3.20;;;;;;;;;;5038897;28;20037;-70
2023/07/24 10:05:16;;;;;;;5.90;3.75;;;;;;;;;;5038684;28;20037;-70
2023/07/24 10:07:42;;;;;;;4.07;2.85;;;;;;;;;;5038368;28;20041;-70
2023/07/24 10:10:08;;;;;;;3.78;3.20;;;;;;;;;;5040847;28;20048;-70
2023/07/24 10:12:36;;;;;;;3.58;3.25;;;;;;;;;;5038082;28;20075;-70
2023/07/24 10:15:02;;;;;;;2.75;2.50;;;;;;;;;;5038855;28;20091;-70
2023/07/24 10:17:35;;;;;;;2.95;1.95;;;;;;;;;;5034492;28;20476;-70
2023/07/24 10:20:05;;;;;;;2.80;2.58;;;;;;;;;;5035083;28;20041;-70
2023/07/24 10:22:31;;;;;;;2.75;2.20;;;;;;;;;;5036480;28;20052;-70
2023/07/24 10:24:57;;;;;;;2.13;1.92;;;;;;;;;;5041280;28;20482;-70
2023/07/24 10:27:24;;;;;;;2.33;1.77;;;;;;;;;;5030693;28;20538;-70
2023/07/24 10:30:00;;;;;;;2.00;1.50;;;;;;;;;;5034463;28;20095;-70
2023/07/24 10:32:26;;;;;;;1.30;1.20;;;;;;;;;;5032845;28;20045;-70
2023/07/24 10:35:10;;;;;;;1.05;1.00;;;;;;;;;;5035634;28;20041;-70
2023/07/24 10:37:36;;;;;;;1.88;1.50;;;;;;;;;;5034909;28;20052;-70
2023/07/24 10:40:04;;;;;;;1.42;1.33;;;;;;;;;;5031749;28;20115;-70
2023/07/24 10:42:30;;;;;;;1.95;1.63;;;;;;;;;;5033120;28;20114;-70
2023/07/24 10:45:10;;;;;;;1.33;1.23;;;;;;;;;;5036685;28;20037;-71
2023/07/24 10:47:36;;;;;;;1.25;1.15;;;;;;;;;;5032969;28;20136;-70
2023/07/24 10:50:03;;;;;;;5.65;2.10;;;;;;;;;;5042421;28;20045;-70
2023/07/24 10:52:32;;;;;;;1.83;1.67;;;;;;;;;;5029916;28;20034;-70
2023/07/24 10:55:02;;;;;;;2.53;1.88;;;;;;;;;;5029665;28;20041;-70
2023/07/24 10:57:28;;;;;;;2.20;2.00;;;;;;;;;;5037241;28;20047;-70
2023/07/24 10:59:54;;;;;;;2.13;2.03;;;;;;;;;;5026276;28;20045;-70
2023/07/24 11:02:20;;;;;;;2.75;2.00;;;;;;;;;;5028871;28;20042;-70
2023/07/24 11:04:46;;;;;;;1.90;1.80;;;;;;;;;;5032366;28;20041;-70
2023/07/24 11:07:13;;;;;;;1.70;1.58;;;;;;;;;;5036539;28;20140;-70
2023/07/24 11:09:43;;;;;;;1.80;1.67;;;;;;;;;;5038294;28;20120;-70
2023/07/24 11:12:10;;;;;;;1.60;1.50;;;;;;;;;;5028145;28;20379;-70
2023/07/24 11:14:45;;;;;;;2.35;2.10;;;;;;;;;;5034059;28;20068;-70
2023/07/24 11:17:11;;;;;;;1.75;1.65;;;;;;;;;;5035340;28;20064;-70
2023/07/24 11:19:37;;;;;;;2.03;1.92;;;;;;;;;;5040489;28;20052;-70
2023/07/24 11:22:03;;;;;;;3.35;2.97;;;;;;;;;;5042400;28;20049;-70
2023/07/24 11:24:30;;;;;;;2.95;2.60;;;;;;;;;;5033360;28;20045;-70
2023/07/24 11:26:56;;;;;;;3.35;2.67;;;;;;;;;;5034108;28;20053;-70
2023/07/24 11:29:22;;;;;;;3.83;3.25;;;;;;;;;;5040341;28;20041;-70
2023/07/24 11:31:54;;;;;;;3.50;3.20;;;;;;;;;;5036341;28;20128;-70
2023/07/24 11:34:20;;;;;;;2.80;2.60;;;;;;;;;;5039516;28;20416;-60
2023/07/24 11:36:46;;;;;;;5.32;3.17;;;;;;;;;;5039780;28;20045;-62
2023/07/24 11:39:12;;;;;;;3.28;2.97;;;;;;;;;;5045552;28;20044;-62
2023/07/24 11:41:38;;;;;;;3.65;3.35;;;;;;;;;;5044998;28;20040;-62
2023/07/24 11:44:04;;;;;;;2.75;2.55;;;;;;;;;;5043239;28;20457;-62
2023/07/24 11:46:32;;;;;;;4.05;2.75;;;;;;;;;;5042123;28;20818;-62
2023/07/24 11:48:58;;;;;;;2.22;2.00;;;;;;;;;;5043489;28;20090;-62
2023/07/24 11:51:26;;;;;;;2.08;1.90;;;;;;;;;;5041392;28;20037;-62
2023/07/24 11:53:52;;;;;;;1.77;1.67;;;;;;;;;;5043725;28;20052;-62
2023/07/24 11:56:19;;;;;;;0.98;0.98;;;;;;;;;;5042791;28;20040;-62
2023/07/24 11:58:45;;;;;;;1.20;1.20;;;;;;;;;;5034773;28;20041;-62
2023/07/24 12:01:15;;;;;;;1.67;1.58;;;;;;;;;;5027964;28;20080;-64
2023/07/24 12:03:41;;;;;;;2.60;1.75;;;;;;;;;;5027476;28;20134;-63
2023/07/24 12:06:14;;;;;;;2.17;1.98;;;;;;;;;;5040839;28;20082;-64
2023/07/24 12:08:40;;;;;;;1.83;1.73;;;;;;;;;;5032257;28;20051;-64
2023/07/24 12:11:16;;;;;;;1.30;1.20;;;;;;;;;;5040832;28;20033;-64
2023/07/24 12:13:42;;;;;;;1.55;1.45;;;;;;;;;;5042537;28;20041;-63
2023/07/24 12:16:08;;;;;;;1.70;1.60;;;;;;;;;;5040983;28;20512;-63
2023/07/24 12:18:34;;;;;;;1.92;1.27;;;;;;;;;;5040562;28;20041;-63
2023/07/24 12:21:00;;;;;;;1.50;1.40;;;;;;;;;;5044035;28;20585;-63
2023/07/24 12:23:26;;;;;;;2.08;1.88;;;;;;;;;;5039465;28;20045;-63
2023/07/24 12:25:53;;;;;;;2.50;2.05;;;;;;;;;;5041385;28;20044;-63
2023/07/24 12:28:19;;;;;;;1.80;1.70;;;;;;;;;;5042391;28;20102;-63
2023/07/24 12:30:45;;;;;;;2.20;2.03;;;;;;;;;;5041525;28;20033;-63
2023/07/24 12:33:11;;;;;;;2.10;2.00;;;;;;;;;;5041530;28;20595;-63
2023/07/24 12:35:37;;;;;;;2.00;1.80;;;;;;;;;;5039176;28;20102;-63
2023/07/24 12:38:03;;;;;;;2.10;1.90;;;;;;;;;;5042281;28;20421;-63
2023/07/24 12:40:29;;;;;;;1.73;1.63;;;;;;;;;;5041999;28;20486;-63
2023/07/24 12:42:55;;;;;;;1.70;1.60;;;;;;;;;;5042810;28;20047;-63
2023/07/24 12:45:21;;;;;;;2.65;1.50;;;;;;;;;;5040970;28;20045;-63
2023/07/24 12:47:47;;;;;;;1.40;1.30;;;;;;;;;;5042126;28;20076;-63
2023/07/24 12:50:13;;;;;;;0.90;0.90;;;;;;;;;;5042012;28;20481;-63
2023/07/24 12:52:39;;;;;;;1.30;1.20;;;;;;;;;;5038641;28;20044;-63
2023/07/24 12:55:05;;;;;;;0.88;0.88;;;;;;;;;;5040404;28;20045;-63
2023/07/24 12:57:31;;;;;;;1.00;1.00;;;;;;;;;;5041937;28;20040;-63
2023/07/24 12:59:57;;;;;;;0.98;0.93;;;;;;;;;;5045450;28;20531;-63
2023/07/24 13:02:23;;;;;;;0.90;0.90;;;;;;;;;;5042711;28;20153;-63
2023/07/24 13:04:49;;;;;;;0.70;0.70;;;;;;;;;;5036941;28;20048;-63
2023/07/24 13:07:15;;;;;;;0.80;0.80;;;;;;;;;;5038172;28;20520;-63
2023/07/24 13:09:41;;;;;;;1.33;0.77;;;;;;;;;;5038695;28;20065;-63
2023/07/24 13:12:08;;;;;;;0.70;0.70;;;;;;;;;;5040537;28;20041;-63
2023/07/24 13:14:34;;;;;;;0.60;0.40;;;;;;;;;;5042393;28;20554;-63
2023/07/24 13:17:00;;;;;;;0.50;0.50;;;;;;;;;;5040372;28;20057;-63
2023/07/24 13:19:26;;;;;;;0.50;0.50;;;;;;;;;;5034892;28;20037;-63
2023/07/24 13:21:52;;;;;;;0.40;0.40;;;;;;;;;;5033527;28;20535;-63
2023/07/24 13:24:18;;;;;;;0.63;0.55;;;;;;;;;;5031079;28;20041;-63
2023/07/24 13:26:44;;;;;;;0.60;0.52;;;;;;;;;;5031148;28;20044;-63
2023/07/24 13:29:10;;;;;;;1.38;0.70;;;;;;;;;;5028455;28;20053;-63
2023/07/24 13:31:36;;;;;;;1.70;0.70;;;;;;;;;;5026769;28;20057;-63
2023/07/24 13:34:03;;;;;;;1.42;0.63;;;;;;;;;;5032173;28;20124;-63
2023/07/24 13:36:29;;;;;;;1.65;0.60;;;;;;;;;;5032351;28;20192;-63
2023/07/24 13:38:55;;;;;;;0.60;0.60;;;;;;;;;;5033112;28;20095;-63
2023/07/24 13:41:21;;;;;;;2.28;0.57;;;;;;;;;;5031964;28;20056;-63
2023/07/24 13:43:47;;;;;;;2.38;0.75;;;;;;;;;;5034227;28;20041;-63
2023/07/24 13:46:13;;;;;;;1.52;0.90;;;;;;;;;;5038541;28;20041;-63
2023/07/24 13:48:39;;;;;;;0.57;0.57;;;;;;;;;;5031717;28;20048;-63
2023/07/24 13:51:05;;;;;;;0.65;0.55;;;;;;;;;;5047225;28;20733;-63
2023/07/24 13:53:31;;;;;;;1.63;0.60;;;;;;;;;;5044196;28;20471;-64
2023/07/24 13:55:57;;;;;;;1.60;0.70;;;;;;;;;;5027353;28;20046;-63
2023/07/24 13:58:23;;;;;;;1.02;0.80;;;;;;;;;;5026191;28;20064;-63
2023/07/24 14:00:49;;;;;;;0.63;0.55;;;;;;;;;;5036293;28;20041;-62
2023/07/24 14:03:15;;;;;;;1.42;0.80;;;;;;;;;;5044560;28;20052;-63
2023/07/24 14:05:41;;;;;;;0.57;0.40;;;;;;;;;;5042147;28;20425;-63
2023/07/24 14:08:08;;;;;;;0.70;0.60;;;;;;;;;;5041433;28;20056;-63
2023/07/24 14:10:34;;;;;;;1.45;0.80;;;;;;;;;;5036951;28;20049;-63
2023/07/24 14:13:00;;;;;;;1.63;0.73;;;;;;;;;;5036562;28;20084;-63
2023/07/24 14:15:26;;;;;;;1.27;0.50;;;;;;;;;;5027715;28;20045;-63
2023/07/24 14:17:52;;;;;;;1.13;0.50;;;;;;;;;;5032446;28;20045;-63
2023/07/24 14:20:18;;;;;;;1.10;0.82;;;;;;;;;;5032634;28;20060;-63
2023/07/24 14:22:44;;;;;;;2.55;0.70;;;;;;;;;;5037957;28;20525;-63
2023/07/24 14:25:10;;;;;;;2.03;0.90;;;;;;;;;;5026048;28;20045;-63
2023/07/24 14:27:36;;;;;;;1.02;0.47;;;;;;;;;;5026124;28;20103;-63
2023/07/24 14:30:03;;;;;;;0.85;0.77;;;;;;;;;;5034020;28;20045;-63
2023/07/24 14:32:29;;;;;;;0.47;0.30;;;;;;;;;;5035210;28;20382;-63
2023/07/24 14:34:55;;;;;;;1.35;0.60;;;;;;;;;;5038407;28;20048;-63
2023/07/24 14:37:21;;;;;;;0.50;0.32;;;;;;;;;;5038856;28;20477;-63
2023/07/24 14:39:47;;;;;;;0.43;0.40;;;;;;;;;;5037381;28;20033;-62